Sea Dolphin C — V7XL9 — position and weather

sailwx.info

Track history (hours):
 
Tides and Currents Weather Stations Pressure Air Temp Water Temp Dewpoint Dewpoint Depression Visibility Wind Speed Wind Dir Waves Ship Positions

Sea Dolphin C

Last reported at 2016-Jun-23 17:12 UTC. Time now 2016-Jun-28 22:30 UTC.
Position N 36°27' E 035°47'.

Length 181 m; draft 9 m.

Type: Cargo ship. MMSI: 538004513.

Date/timePositionNaut miles runAvg speedWind from/ knotsBaromVisibWave heightAir tempDewpointWater temp
2016-Jun-23 17:12N 36°27' E 035°47'812.9
2016-Jun-23 16:33N 36°23' E 035°38'1313.4
2016-Jun-23 15:33N 36°20' E 035°21'2713.5
2016-Jun-23 13:33N 36°15' E 034°48'1313.3
2016-Jun-23 12:33N 36°13' E 034°32'  
2016-Jun-20 11:28N 36°32' E 015°05'1213.1
2016-Jun-20 10:32N 36°35' E 014°50'1313.0
2016-Jun-20 09:33N 36°37' E 014°35'1313.1
2016-Jun-20 08:34N 36°40' E 014°19'1313.1
2016-Jun-20 07:33N 36°43' E 014°03'1313.0
2016-Jun-20 06:34N 36°46' E 013°47'1413.6
2016-Jun-20 05:34N 36°49' E 013°30'55913.0
2016-Jun-18 10:25N 36°47' E 001°52'1313.5
2016-Jun-18 09:27N 36°44' E 001°36'1314.0
2016-Jun-18 08:33N 36°42' E 001°20'1514.6
2016-Jun-18 07:33N 36°39' E 001°03'1514.6
2016-Jun-18 06:33N 36°37' E 000°45'1414.3
2016-Jun-18 05:33N 36°33' E 000°27'1414.5
2016-Jun-18 04:33N 36°31' E 000°09'1514.6
2016-Jun-18 03:33N 36°28' W 000°08'1514.5
2016-Jun-18 02:33N 36°25' W 000°26'1514.6
2016-Jun-18 01:33N 36°23' W 000°44'4213.9
2016-Jun-17 22:31N 36°15' W 001°35'5213.3
2016-Jun-17 18:33N 36°08' W 002°40'12414.7
2016-Jun-17 10:08N 36°00' W 005°13'915.7
2016-Jun-17 09:34N 35°58' W 005°24'26111.2
2016-Jun-16 10:17N 38°18' W 009°59'1013.0
2016-Jun-16 09:32N 38°28' W 010°02'1313.4
2016-Jun-16 08:33N 38°41' W 010°06'1313.3
2016-Jun-16 07:33N 38°54' W 010°06'  
2016-Jun-13 17:33N 49°46' W 003°35'  
Track history (hours):
 
Tides and Currents Weather Stations Pressure Air Temp Water Temp Dewpoint Dewpoint Depression Visibility Wind Speed Wind Dir Waves Ship Positions

Sea Dolphin C

Last reported at 2016-Jun-23 17:12 UTC. Time now 2016-Jun-28 22:30 UTC.
Position N 36°27' E 035°47'.

Length 181 m; draft 9 m.

Type: Cargo ship. MMSI: 538004513.

Date/timePositionNaut miles runAvg speedWind from/ knotsBaromVisibWave heightAir tempDewpointWater temp
2016-Jun-23 17:12N 36°27' E 035°47'812.9
2016-Jun-23 16:33N 36°23' E 035°38'1313.4
2016-Jun-23 15:33N 36°20' E 035°21'2713.5
2016-Jun-23 13:33N 36°15' E 034°48'1313.3
2016-Jun-23 12:33N 36°13' E 034°32'  
2016-Jun-20 11:28N 36°32' E 015°05'1213.1
2016-Jun-20 10:32N 36°35' E 014°50'1313.0
2016-Jun-20 09:33N 36°37' E 014°35'1313.1
2016-Jun-20 08:34N 36°40' E 014°19'1313.1
2016-Jun-20 07:33N 36°43' E 014°03'1313.0
2016-Jun-20 06:34N 36°46' E 013°47'1413.6
2016-Jun-20 05:34N 36°49' E 013°30'55913.0
2016-Jun-18 10:25N 36°47' E 001°52'1313.5
2016-Jun-18 09:27N 36°44' E 001°36'1314.0
2016-Jun-18 08:33N 36°42' E 001°20'1514.6
2016-Jun-18 07:33N 36°39' E 001°03'1514.6
2016-Jun-18 06:33N 36°37' E 000°45'1414.3
2016-Jun-18 05:33N 36°33' E 000°27'1414.5
2016-Jun-18 04:33N 36°31' E 000°09'1514.6
2016-Jun-18 03:33N 36°28' W 000°08'1514.5
2016-Jun-18 02:33N 36°25' W 000°26'1514.6
2016-Jun-18 01:33N 36°23' W 000°44'4213.9
2016-Jun-17 22:31N 36°15' W 001°35'5213.3
2016-Jun-17 18:33N 36°08' W 002°40'12414.7
2016-Jun-17 10:08N 36°00' W 005°13'915.7
2016-Jun-17 09:34N 35°58' W 005°24'26111.2
2016-Jun-16 10:17N 38°18' W 009°59'1013.0
2016-Jun-16 09:32N 38°28' W 010°02'1313.4
2016-Jun-16 08:33N 38°41' W 010°06'1313.3
2016-Jun-16 07:33N 38°54' W 010°06'  
2016-Jun-13 17:33N 49°46' W 003°35'  

Dump ship's entire track history